createdAt,value
2018-09-19T00:00:59.136Z,18.57
2018-09-19T00:03:27.833Z,18.59
2018-09-19T00:05:56.460Z,18.67
2018-09-19T00:08:25.048Z,18.49
2018-09-19T00:10:53.702Z,18.53
2018-09-19T00:13:22.329Z,18.49
2018-09-19T00:15:50.956Z,18.48
2018-09-19T00:18:19.575Z,18.42
2018-09-19T00:20:48.230Z,18.53
2018-09-19T00:23:16.870Z,18.36
2018-09-19T00:25:45.509Z,18.29
2018-09-19T00:28:14.300Z,18.27
2018-09-19T00:30:42.915Z,18.30
2018-09-19T00:33:11.527Z,18.25
2018-09-19T00:35:40.161Z,18.14
2018-09-19T00:38:08.795Z,18.13
2018-09-19T00:40:37.424Z,18.10
2018-09-19T00:43:06.060Z,18.15
2018-09-19T00:45:34.710Z,18.09
2018-09-19T00:48:04.403Z,18.04
2018-09-19T00:50:33.108Z,18.07
2018-09-19T00:53:01.780Z,17.96
2018-09-19T00:55:30.389Z,17.92
2018-09-19T00:57:59.324Z,17.96
2018-09-19T01:00:28.207Z,17.88
2018-09-19T01:02:56.841Z,17.89
2018-09-19T01:05:25.467Z,17.97
2018-09-19T01:07:54.086Z,17.93
2018-09-19T01:10:22.739Z,17.99
2018-09-19T01:12:51.383Z,17.99
2018-09-19T01:15:19.991Z,17.90
2018-09-19T01:17:48.616Z,17.66
2018-09-19T01:20:17.256Z,17.76
2018-09-19T01:22:45.871Z,17.78
2018-09-19T01:25:14.529Z,17.92
2018-09-19T01:27:43.162Z,17.84
2018-09-19T01:30:11.911Z,17.79
2018-09-19T01:32:40.564Z,17.73
2018-09-19T01:35:09.231Z,17.77
2018-09-19T01:37:37.878Z,17.67
2018-09-19T01:40:06.524Z,17.69
2018-09-19T01:42:35.179Z,17.75
2018-09-19T01:45:03.817Z,17.60
2018-09-19T01:47:32.706Z,17.64
2018-09-19T01:50:01.301Z,17.54
2018-09-19T01:52:29.956Z,17.28
2018-09-19T01:54:58.586Z,17.21
2018-09-19T01:57:27.223Z,17.19
2018-09-19T01:59:55.859Z,16.98
2018-09-19T02:02:24.514Z,17.02
2018-09-19T02:04:53.359Z,16.84
2018-09-19T02:07:21.997Z,17.05
2018-09-19T02:09:50.646Z,17.21
2018-09-19T02:12:19.282Z,17.25
2018-09-19T02:14:47.903Z,17.09
2018-09-19T02:17:16.620Z,17.00
2018-09-19T02:19:45.243Z,17.02
2018-09-19T02:22:13.893Z,17.10
2018-09-19T02:24:42.528Z,16.79
2018-09-19T02:27:11.141Z,16.87
2018-09-19T02:29:39.888Z,16.86
2018-09-19T02:32:08.502Z,16.82
2018-09-19T02:34:37.117Z,16.76
2018-09-19T02:37:05.702Z,16.63
2018-09-19T02:39:34.347Z,16.80
2018-09-19T02:42:03.040Z,16.84
2018-09-19T02:44:31.647Z,16.63
2018-09-19T02:47:00.275Z,16.54
2018-09-19T02:49:28.945Z,16.48
2018-09-19T02:51:58.289Z,16.71
2018-09-19T02:54:28.240Z,16.54
2018-09-19T02:56:56.886Z,16.48
2018-09-19T02:59:25.676Z,16.54
2018-09-19T03:01:54.400Z,16.48
2018-09-19T03:04:23.128Z,16.50
2018-09-19T03:06:51.767Z,16.77
2018-09-19T03:09:21.362Z,16.72
2018-09-19T03:11:49.995Z,16.74
2018-09-19T03:14:18.622Z,16.73
2018-09-19T03:16:47.268Z,16.69
2018-09-19T03:19:15.909Z,16.65
2018-09-19T03:21:44.539Z,16.58
2018-09-19T03:24:13.189Z,16.69
2018-09-19T03:26:41.791Z,16.55
2018-09-19T03:29:10.384Z,16.59
2018-09-19T03:31:39.007Z,16.48
2018-09-19T03:34:07.613Z,16.60
2018-09-19T03:36:36.242Z,16.49
2018-09-19T03:39:07.614Z,16.54
2018-09-19T03:41:36.240Z,16.36
2018-09-19T03:44:05.068Z,16.40
2018-09-19T03:46:33.695Z,16.31
2018-09-19T03:49:02.356Z,16.36
2018-09-19T03:51:30.985Z,16.36
2018-09-19T03:53:59.641Z,16.40
2018-09-19T03:56:28.271Z,16.44
2018-09-19T03:58:56.890Z,16.50
2018-09-19T04:01:25.538Z,16.39
2018-09-19T04:03:54.179Z,16.41
2018-09-19T04:06:22.835Z,16.52
2018-09-19T04:08:51.448Z,16.70
2018-09-19T04:11:20.096Z,16.54
2018-09-19T04:13:48.727Z,16.72
2018-09-19T04:16:17.410Z,16.51
2018-09-19T04:18:46.078Z,16.63
2018-09-19T04:21:14.943Z,16.77
2018-09-19T04:23:43.787Z,16.64
2018-09-19T04:26:12.417Z,16.65
2018-09-19T04:28:41.441Z,16.50
2018-09-19T04:31:10.085Z,16.47
2018-09-19T04:33:38.723Z,16.41
2018-09-19T04:36:07.353Z,16.25
2018-09-19T04:38:36.011Z,16.27
2018-09-19T04:41:04.754Z,16.36
2018-09-19T04:43:33.460Z,16.39
2018-09-19T04:46:02.488Z,16.30
2018-09-19T04:48:37.888Z,16.24
2018-09-19T04:51:07.316Z,16.08
2018-09-19T04:53:35.962Z,15.99
2018-09-19T04:56:04.616Z,16.10
2018-09-19T04:58:33.310Z,16.31
2018-09-19T05:01:01.986Z,16.24
2018-09-19T05:03:30.627Z,16.12
2018-09-19T05:05:59.503Z,16.07
2018-09-19T05:08:28.138Z,16.00
2018-09-19T05:10:56.835Z,16.11
2018-09-19T05:13:25.575Z,16.17
2018-09-19T05:15:54.191Z,16.16
2018-09-19T05:18:22.952Z,16.34
2018-09-19T05:20:51.647Z,16.40
2018-09-19T05:23:20.322Z,16.44
2018-09-19T05:25:48.970Z,16.31
2018-09-19T05:28:18.201Z,16.29
2018-09-19T05:30:46.851Z,16.42
2018-09-19T05:33:15.508Z,16.40
2018-09-19T05:35:44.328Z,16.55
2018-09-19T05:38:13.163Z,16.72
2018-09-19T05:40:41.900Z,16.69
2018-09-19T05:43:10.830Z,16.70
2018-09-19T05:45:39.591Z,16.67
2018-09-19T05:48:08.325Z,16.74
2018-09-19T05:50:37.149Z,16.73
2018-09-19T05:53:05.782Z,16.72
2018-09-19T05:55:35.326Z,16.74
2018-09-19T05:58:04.009Z,16.95
2018-09-19T06:00:32.664Z,16.80
2018-09-19T06:03:01.426Z,16.90
2018-09-19T06:05:30.068Z,16.79
2018-09-19T06:07:58.735Z,16.93
2018-09-19T06:10:29.264Z,17.06
2018-09-19T06:12:58.000Z,17.50
2018-09-19T06:15:26.650Z,17.47
2018-09-19T06:17:55.288Z,17.85
2018-09-19T06:20:24.179Z,17.98
2018-09-19T06:22:52.807Z,17.96
2018-09-19T06:25:21.576Z,18.34
2018-09-19T06:27:50.195Z,18.51
2018-09-19T06:30:18.892Z,18.63
2018-09-19T06:32:47.565Z,18.54
2018-09-19T06:35:16.208Z,18.59
2018-09-19T06:37:44.827Z,18.98
2018-09-19T06:40:13.618Z,19.35
2018-09-19T06:42:42.240Z,19.33
2018-09-19T06:45:10.869Z,19.20
2018-09-19T06:47:39.642Z,19.65
2018-09-19T06:50:09.036Z,19.67
2018-09-19T06:52:38.323Z,19.82
2018-09-19T06:55:06.946Z,19.82
2018-09-19T06:57:35.615Z,19.83
2018-09-19T07:00:04.915Z,20.05
2018-09-19T07:02:33.750Z,20.18
2018-09-19T07:05:02.392Z,19.97
2018-09-19T07:07:32.339Z,20.15
2018-09-19T07:10:00.948Z,19.40
2018-09-19T07:12:29.631Z,19.72
2018-09-19T07:14:58.291Z,20.05
2018-09-19T07:17:26.966Z,20.01
2018-09-19T07:19:55.658Z,20.15
2018-09-19T07:22:24.938Z,20.24
2018-09-19T07:24:53.600Z,20.71
2018-09-19T07:27:25.507Z,21.33
2018-09-19T07:29:55.185Z,21.52
2018-09-19T07:32:23.864Z,21.80
2018-09-19T07:34:52.528Z,21.91
2018-09-19T07:37:22.096Z,21.81
2018-09-19T07:39:51.458Z,21.73
2018-09-19T07:42:20.160Z,21.35
2018-09-19T07:44:50.361Z,21.97
2018-09-19T07:47:19.013Z,22.35
2018-09-19T07:49:49.330Z,22.64
2018-09-19T07:52:17.983Z,22.79
2018-09-19T07:54:48.154Z,22.33
2018-09-19T07:57:17.456Z,22.96
2018-09-19T07:59:49.892Z,23.58
2018-09-19T08:02:19.008Z,23.37
2018-09-19T08:04:49.196Z,23.72
2018-09-19T08:07:18.048Z,23.92
2018-09-19T08:09:48.212Z,23.96
2018-09-19T08:12:16.945Z,23.57
2018-09-19T08:14:46.042Z,23.88
2018-09-19T08:17:15.572Z,24.26
2018-09-19T08:19:44.277Z,23.69
2018-09-19T08:22:12.960Z,23.98
2018-09-19T08:24:42.407Z,23.96
2018-09-19T08:27:11.046Z,24.09
2018-09-19T08:29:39.683Z,24.29
2018-09-19T08:32:08.486Z,24.79
2018-09-19T08:34:37.945Z,24.92
2018-09-19T08:37:06.624Z,24.36
2018-09-19T08:39:35.710Z,24.62
2018-09-19T08:42:04.439Z,24.85
2018-09-19T08:44:33.126Z,24.97
2018-09-19T08:47:01.836Z,24.79
2018-09-19T08:49:31.634Z,25.17
2018-09-19T08:52:00.386Z,25.29
2018-09-19T08:54:29.082Z,25.61
2018-09-19T08:56:59.251Z,25.51
2018-09-19T08:59:27.881Z,25.46
2018-09-19T09:01:56.972Z,25.52
2018-09-19T09:04:25.713Z,25.63
2018-09-19T09:06:55.935Z,25.57
2018-09-19T09:09:24.600Z,25.74
2018-09-19T09:11:54.822Z,25.63
2018-09-19T09:14:23.638Z,25.30
2018-09-19T09:16:52.598Z,25.84
2018-09-19T09:19:22.172Z,26.25
2018-09-19T09:21:50.836Z,26.66
2018-09-19T09:24:20.099Z,25.91
2018-09-19T09:26:49.203Z,26.53
2018-09-19T09:29:18.566Z,26.99
2018-09-19T09:31:47.223Z,26.97
2018-09-19T09:34:15.951Z,26.47
2018-09-19T09:36:44.655Z,26.53
2018-09-19T09:39:13.401Z,26.72
2018-09-19T09:41:42.622Z,27.41
2018-09-19T09:44:11.256Z,27.17
2018-09-19T09:46:40.297Z,27.57
2018-09-19T09:49:10.561Z,27.88
2018-09-19T09:51:39.215Z,28.52
2018-09-19T09:54:07.865Z,28.92
2018-09-19T09:56:37.234Z,28.17
2018-09-19T09:59:06.092Z,28.38
2018-09-19T10:01:35.123Z,27.26
2018-09-19T10:04:03.839Z,27.21
2018-09-19T10:06:32.558Z,27.69
2018-09-19T10:09:03.076Z,27.99
2018-09-19T10:11:31.835Z,27.41
2018-09-19T10:14:02.527Z,28.62
2018-09-19T10:16:31.231Z,27.74
2018-09-19T10:19:01.676Z,28.43
2018-09-19T10:21:30.800Z,28.76
2018-09-19T10:23:59.437Z,28.13
2018-09-19T10:26:28.043Z,28.93
2018-09-19T10:28:56.636Z,29.08
2018-09-19T10:31:26.291Z,29.33
2018-09-19T10:33:55.973Z,29.48
2018-09-19T10:36:25.194Z,29.52
2018-09-19T10:38:54.040Z,29.77
2018-09-19T10:41:23.956Z,29.06
2018-09-19T10:43:53.357Z,28.72
2018-09-19T10:46:22.019Z,28.38
2018-09-19T10:48:50.694Z,29.24
2018-09-19T10:51:19.791Z,28.99
2018-09-19T10:53:48.462Z,28.49
2018-09-19T10:56:17.126Z,29.28
2018-09-19T10:58:46.010Z,30.18
2018-09-19T11:01:15.080Z,29.70
2018-09-19T11:03:43.933Z,29.70
2018-09-19T11:06:12.584Z,29.74
2018-09-19T11:08:42.419Z,29.54
2018-09-19T11:11:11.100Z,29.87
2018-09-19T11:13:39.780Z,29.57
2018-09-19T11:16:08.495Z,29.85
2018-09-19T11:18:37.633Z,29.41
2018-09-19T11:21:11.819Z,30.18
2018-09-19T11:23:40.915Z,28.71
2018-09-19T11:26:09.709Z,29.41
2018-09-19T11:28:38.891Z,29.34
2018-09-19T11:31:07.692Z,28.30
2018-09-19T11:33:36.362Z,28.61
2018-09-19T11:36:05.015Z,29.00
2018-09-19T11:38:35.435Z,29.58
2018-09-19T11:41:04.104Z,29.37
2018-09-19T11:43:33.365Z,29.87
2018-09-19T11:46:01.979Z,30.15
2018-09-19T11:48:30.597Z,28.69
2018-09-19T11:50:59.493Z,29.34
2018-09-19T11:53:29.292Z,29.51
2018-09-19T11:56:00.793Z,30.00
2018-09-19T11:58:30.376Z,30.61
2018-09-19T12:00:59.471Z,29.59
2018-09-19T12:03:28.703Z,30.19
2018-09-19T12:05:58.189Z,30.84
2018-09-19T12:08:29.541Z,31.19
2018-09-19T12:10:58.242Z,31.25
2018-09-19T12:13:28.247Z,30.96
2018-09-19T12:15:56.862Z,30.92
2018-09-19T12:18:27.427Z,31.23
2018-09-19T12:20:56.189Z,31.22
2018-09-19T12:23:24.804Z,31.71
2018-09-19T12:25:53.432Z,31.44
2018-09-19T12:28:22.068Z,31.30
2018-09-19T12:30:50.705Z,31.71
2018-09-19T12:33:19.596Z,31.26
2018-09-19T12:35:49.852Z,31.16
2018-09-19T12:38:18.492Z,31.02
2018-09-19T12:40:47.141Z,30.04
2018-09-19T12:43:18.726Z,29.83
2018-09-19T12:45:47.327Z,30.05
2018-09-19T12:48:16.304Z,30.62
2018-09-19T12:50:45.144Z,30.81
2018-09-19T12:53:13.789Z,31.09
2018-09-19T12:55:42.508Z,31.38
2018-09-19T12:58:11.118Z,31.49
2018-09-19T13:00:43.629Z,31.43
2018-09-19T13:03:12.219Z,31.34
2018-09-19T13:05:41.857Z,31.12
2018-09-19T13:08:12.455Z,31.50
2018-09-19T13:10:41.108Z,31.27
2018-09-19T13:13:09.687Z,30.90
2018-09-19T13:15:38.500Z,30.13
2018-09-19T13:18:08.524Z,30.05
2018-09-19T13:20:37.156Z,30.56
2018-09-19T13:23:05.784Z,31.16
2018-09-19T13:25:34.646Z,31.43
2018-09-19T13:28:03.812Z,31.16
2018-09-19T13:30:32.779Z,30.92
2018-09-19T13:33:04.780Z,31.21
2018-09-19T13:35:33.547Z,30.39
2018-09-19T13:38:02.606Z,30.80
2018-09-19T13:40:31.464Z,30.19
2018-09-19T13:43:00.099Z,31.00
2018-09-19T13:45:31.313Z,31.09
2018-09-19T13:48:00.674Z,30.55
2018-09-19T13:50:41.358Z,30.33
2018-09-19T13:53:10.441Z,30.50
2018-09-19T13:55:39.432Z,30.79
2018-09-19T13:58:09.161Z,31.01
2018-09-19T14:00:37.778Z,30.26
2018-09-19T14:03:06.875Z,30.09
2018-09-19T14:05:36.017Z,30.50
2018-09-19T14:08:06.133Z,30.56
2018-09-19T14:10:36.145Z,30.46
2018-09-19T14:13:06.966Z,30.11
2018-09-19T14:15:36.040Z,29.96
2018-09-19T14:18:07.286Z,30.09
2018-09-19T14:20:36.119Z,29.94
2018-09-19T14:23:05.695Z,29.82
2018-09-19T14:25:36.791Z,30.04
2018-09-19T14:28:07.242Z,29.86
2018-09-19T14:30:36.252Z,29.91
2018-09-19T14:33:05.051Z,29.51
2018-09-19T14:35:34.010Z,29.03
2018-09-19T14:38:03.022Z,28.88
2018-09-19T14:40:34.861Z,28.45
2018-09-19T14:43:05.016Z,28.54
2018-09-19T14:45:33.847Z,28.39
2018-09-19T14:48:03.528Z,28.25
2018-09-19T14:50:32.684Z,27.89
2018-09-19T14:53:02.393Z,27.84
2018-09-19T14:55:33.327Z,27.58
2018-09-19T14:58:01.981Z,27.78
2018-09-19T15:00:30.764Z,27.57
2018-09-19T15:03:02.641Z,27.67
2018-09-19T15:05:32.665Z,27.42
2018-09-19T15:08:02.078Z,27.27
2018-09-19T15:10:31.723Z,27.15
2018-09-19T15:13:00.836Z,27.10
2018-09-19T15:15:30.032Z,26.93
2018-09-19T15:18:00.138Z,27.00
2018-09-19T15:20:31.266Z,26.91
2018-09-19T15:23:00.386Z,26.78
2018-09-19T15:25:30.019Z,26.91
2018-09-19T15:27:59.449Z,26.87
2018-09-19T15:30:31.208Z,26.86
2018-09-19T15:33:00.025Z,26.80
2018-09-19T15:35:29.111Z,26.95
2018-09-19T15:37:58.424Z,26.90
2018-09-19T15:40:27.514Z,26.84
2018-09-19T15:42:56.489Z,26.81
2018-09-19T15:45:25.395Z,26.75
2018-09-19T15:47:54.866Z,26.79
2018-09-19T15:50:23.908Z,26.70
2018-09-19T15:52:53.252Z,26.64
2018-09-19T15:55:22.235Z,26.65
2018-09-19T15:57:51.239Z,26.65
2018-09-19T16:00:20.128Z,26.66
2018-09-19T16:02:49.475Z,26.71
2018-09-19T16:05:18.997Z,26.55
2018-09-19T16:07:48.787Z,26.68
2018-09-19T16:10:17.585Z,26.80
2018-09-19T16:12:46.697Z,26.51
2018-09-19T16:15:17.336Z,26.72
2018-09-19T16:17:48.134Z,26.68
2018-09-19T16:20:17.024Z,26.53
2018-09-19T16:22:46.453Z,26.46
2018-09-19T16:25:15.307Z,26.41
2018-09-19T16:27:44.123Z,26.41
2018-09-19T16:30:12.913Z,26.40
2018-09-19T16:32:42.278Z,26.43
2018-09-19T16:35:11.509Z,26.41
2018-09-19T16:37:40.398Z,26.32
2018-09-19T16:40:09.505Z,26.17
2018-09-19T16:42:38.398Z,26.07
2018-09-19T16:45:07.619Z,26.08
2018-09-19T16:47:37.044Z,25.96
2018-09-19T16:50:06.409Z,25.98
2018-09-19T16:52:35.110Z,25.90
2018-09-19T16:55:04.096Z,25.82
2018-09-19T16:57:33.236Z,25.84
2018-09-19T17:00:01.849Z,25.59
2018-09-19T17:02:31.807Z,25.56
2018-09-19T17:05:00.671Z,25.44
2018-09-19T17:07:29.437Z,25.45
2018-09-19T17:09:58.167Z,25.34
2018-09-19T17:12:27.656Z,25.50
2018-09-19T17:14:56.435Z,25.44
2018-09-19T17:17:25.144Z,25.34
2018-09-19T17:19:53.788Z,25.37
2018-09-19T17:22:23.139Z,25.30
2018-09-19T17:24:52.001Z,25.13
2018-09-19T17:27:20.795Z,25.10
2018-09-19T17:29:49.706Z,25.10
2018-09-19T17:32:18.573Z,24.92
2018-09-19T17:34:47.406Z,24.88
2018-09-19T17:37:16.283Z,24.83
2018-09-19T17:39:44.926Z,24.70
2018-09-19T17:42:13.684Z,24.68
2018-09-19T17:44:43.302Z,24.73
2018-09-19T17:47:11.948Z,24.53
2018-09-19T17:49:40.907Z,24.39
2018-09-19T17:52:09.596Z,24.31
2018-09-19T17:54:38.827Z,24.15
2018-09-19T17:57:09.508Z,24.16
2018-09-19T17:59:38.898Z,24.12
2018-09-19T18:02:07.543Z,24.14
2018-09-19T18:04:36.593Z,24.02
2018-09-19T18:07:05.501Z,24.02
2018-09-19T18:09:34.135Z,23.84
2018-09-19T18:12:02.769Z,23.82
2018-09-19T18:14:31.512Z,23.80
2018-09-19T18:17:00.191Z,23.76
2018-09-19T18:19:29.624Z,23.68
2018-09-19T18:21:58.692Z,23.69
2018-09-19T18:24:28.006Z,23.52
2018-09-19T18:26:58.378Z,23.55
2018-09-19T18:29:28.088Z,23.43
2018-09-19T18:31:56.830Z,23.51
2018-09-19T18:34:26.260Z,23.40
2018-09-19T18:36:54.932Z,23.38
2018-09-19T18:39:23.559Z,23.30
2018-09-19T18:41:52.203Z,23.23
2018-09-19T18:44:20.841Z,23.17
2018-09-19T18:46:49.548Z,23.14
2018-09-19T18:49:18.207Z,23.22
2018-09-19T18:51:46.835Z,23.09
2018-09-19T18:54:19.731Z,23.10
2018-09-19T18:56:48.336Z,22.80
2018-09-19T18:59:16.988Z,22.85
2018-09-19T19:01:45.714Z,22.70
2018-09-19T19:04:14.354Z,22.84
2018-09-19T19:06:43.286Z,22.79
2018-09-19T19:09:12.719Z,22.80
2018-09-19T19:11:41.708Z,22.71
2018-09-19T19:14:10.911Z,22.73
2018-09-19T19:16:39.633Z,22.67
2018-09-19T19:19:09.069Z,22.57
2018-09-19T19:21:37.794Z,22.49
2018-09-19T19:24:06.478Z,22.57
2018-09-19T19:26:35.164Z,22.47
2018-09-19T19:29:04.212Z,22.39
2018-09-19T19:31:33.045Z,22.26
2018-09-19T19:34:01.656Z,22.25
2018-09-19T19:36:30.313Z,22.26
2018-09-19T19:38:59.007Z,22.41
2018-09-19T19:41:27.632Z,22.32
2018-09-19T19:43:56.328Z,22.28
2018-09-19T19:46:25.086Z,22.08
2018-09-19T19:48:53.762Z,22.01
2018-09-19T19:51:24.035Z,22.03
2018-09-19T19:53:52.707Z,21.96
2018-09-19T19:56:21.476Z,22.02
2018-09-19T19:58:50.142Z,21.88
2018-09-19T20:01:18.899Z,21.91
2018-09-19T20:03:47.695Z,21.97
2018-09-19T20:06:16.395Z,21.93
2018-09-19T20:08:45.041Z,21.97
2018-09-19T20:11:13.777Z,21.82
2018-09-19T20:13:42.602Z,21.76
2018-09-19T20:16:11.263Z,21.95
2018-09-19T20:18:39.994Z,21.85
2018-09-19T20:21:09.188Z,21.60
2018-09-19T20:23:37.863Z,21.68
2018-09-19T20:26:06.532Z,21.60
2018-09-19T20:28:36.053Z,21.61
2018-09-19T20:31:04.738Z,21.60
2018-09-19T20:33:33.424Z,21.55
2018-09-19T20:36:02.264Z,21.62
2018-09-19T20:38:31.038Z,21.66
2018-09-19T20:41:00.006Z,21.66
2018-09-19T20:43:28.711Z,21.72
2018-09-19T20:45:57.395Z,21.73
2018-09-19T20:48:26.176Z,21.87
2018-09-19T20:50:54.893Z,21.88
2018-09-19T20:53:23.654Z,22.06
2018-09-19T20:55:52.854Z,22.04
2018-09-19T20:58:21.825Z,22.10
2018-09-19T21:00:50.747Z,22.25
2018-09-19T21:03:19.404Z,22.38
2018-09-19T21:05:48.170Z,22.47
2018-09-19T21:08:16.864Z,22.46
2018-09-19T21:10:45.505Z,22.48
2018-09-19T21:13:14.192Z,22.44
2018-09-19T21:15:42.852Z,22.39
2018-09-19T21:18:11.819Z,22.39
2018-09-19T21:20:40.497Z,22.31
2018-09-19T21:23:09.153Z,22.34
2018-09-19T21:25:37.979Z,22.47
2018-09-19T21:28:06.588Z,22.44
2018-09-19T21:30:35.235Z,22.46
2018-09-19T21:33:03.911Z,22.46
2018-09-19T21:35:32.591Z,22.39
2018-09-19T21:38:01.265Z,22.47
2018-09-19T21:40:29.946Z,22.42
2018-09-19T21:42:58.638Z,22.41
2018-09-19T21:45:27.352Z,22.41
2018-09-19T21:47:56.319Z,22.43
2018-09-19T21:50:25.067Z,22.52
2018-09-19T21:52:54.389Z,22.51
2018-09-19T21:55:23.422Z,22.49
2018-09-19T21:57:52.438Z,22.50
2018-09-19T22:00:21.247Z,22.50
2018-09-19T22:02:49.927Z,22.48
2018-09-19T22:05:18.813Z,22.41
2018-09-19T22:07:47.463Z,22.32
2018-09-19T22:10:16.115Z,22.36
2018-09-19T22:12:44.737Z,22.20
2018-09-19T22:15:13.364Z,22.07
2018-09-19T22:17:41.987Z,22.14
2018-09-19T22:20:10.659Z,22.02
2018-09-19T22:22:39.417Z,21.91
2018-09-19T22:25:08.066Z,21.73
2018-09-19T22:27:36.729Z,21.65
2018-09-19T22:30:05.347Z,21.70
2018-09-19T22:32:34.040Z,21.53
2018-09-19T22:35:02.689Z,21.22
2018-09-19T22:37:31.322Z,21.21
2018-09-19T22:40:00.113Z,21.17
2018-09-19T22:42:28.780Z,21.10
2018-09-19T22:44:57.409Z,21.16
2018-09-19T22:47:26.048Z,20.94
2018-09-19T22:49:54.916Z,21.01
2018-09-19T22:52:23.570Z,20.94
2018-09-19T22:54:52.369Z,20.92
2018-09-19T22:57:21.016Z,20.99
2018-09-19T22:59:49.654Z,21.04
2018-09-19T23:02:18.348Z,21.03
2018-09-19T23:04:46.989Z,20.98
2018-09-19T23:07:15.641Z,20.94
2018-09-19T23:09:44.450Z,21.16
2018-09-19T23:12:13.283Z,21.16
2018-09-19T23:14:41.942Z,21.18
2018-09-19T23:17:12.155Z,21.39
2018-09-19T23:19:40.924Z,21.31
2018-09-19T23:22:10.099Z,21.42
2018-09-19T23:24:38.855Z,21.44
2018-09-19T23:27:07.607Z,21.49
2018-09-19T23:29:37.121Z,21.35
2018-09-19T23:32:07.082Z,21.37
2018-09-19T23:34:35.711Z,21.51
2018-09-19T23:37:04.364Z,21.39
2018-09-19T23:39:33.056Z,21.32
2018-09-19T23:42:01.734Z,21.31
2018-09-19T23:44:31.227Z,21.19
2018-09-19T23:47:01.193Z,21.13
2018-09-19T23:49:29.884Z,20.75
2018-09-19T23:51:58.516Z,20.71
2018-09-19T23:54:27.233Z,20.74
2018-09-19T23:56:55.868Z,20.79
2018-09-19T23:59:25.448Z,20.75
